Time,TemperatureF,DewpointF,PressureIn,WindDirection,WindDirectionDegrees,WindSpeedMPH,WindSpeedGustMPH,Humidity,HourlyPrecipIn,Conditions,Clouds,dailyrainin,SoftwareType,DateUTC
2013-03-21 00:00:00,54.0,49.2,29.87,WSW,247,0.0,0.0,84,0.00,,,0.00,WeatherCatV1.14B232,2013-03-21 04:00:00,
2013-03-21 00:01:00,54.0,49.2,29.88,WSW,247,0.0,0.0,84,0.00,,,0.00,WeatherCatV1.14B232,2013-03-21 04:01:00,
2013-03-21 00:06:00,54.0,49.2,29.87,WSW,247,0.0,0.0,84,0.00,,,0.00,WeatherCatV1.14B232,2013-03-21 04:06:00,
2013-03-21 00:11:00,53.8,49.0,29.87,WSW,247,0.0,0.0,84,0.00,,,0.00,WeatherCatV1.14B232,2013-03-21 04:11:00,
2013-03-21 00:16:00,53.8,49.4,29.87,WSW,247,0.0,0.0,85,0.00,,,0.00,WeatherCatV1.14B232,2013-03-21 04:16:00,
2013-03-21 00:21:00,53.8,49.4,29.88,WSW,247,0.0,0.0,85,0.00,,,0.00,WeatherCatV1.14B232,2013-03-21 04:21:00,
2013-03-21 00:26:00,53.6,49.2,29.88,WSW,247,0.0,0.0,85,0.00,,,0.00,WeatherCatV1.14B232,2013-03-21 04:26:00,
2013-03-21 00:31:00,53.4,49.0,29.88,West,270,0.0,0.0,85,0.00,,,0.00,WeatherCatV1.14B232,2013-03-21 04:31:00,
2013-03-21 00:36:00,53.4,49.0,29.88,WSW,247,0.0,0.0,85,0.00,,,0.00,WeatherCatV1.14B232,2013-03-21 04:36:00,
2013-03-21 00:41:00,53.4,49.0,29.87,SW,225,0.0,0.0,85,0.00,,,0.00,WeatherCatV1.14B232,2013-03-21 04:41:00,
2013-03-21 00:46:00,53.2,48.8,29.87,SW,225,0.0,0.0,85,0.00,,,0.00,WeatherCatV1.14B232,2013-03-21 04:46:00,
2013-03-21 00:51:00,53.2,48.8,29.88,SW,225,0.0,0.0,85,0.00,,,0.00,WeatherCatV1.14B232,2013-03-21 04:51:00,
2013-03-21 00:56:00,53.2,48.8,29.88,West,270,0.0,0.0,85,0.00,,,0.00,WeatherCatV1.14B232,2013-03-21 04:56:00,
2013-03-21 01:01:00,52.9,48.5,29.87,West,270,0.0,0.0,85,0.00,,,0.00,WeatherCatV1.14B232,2013-03-21 05:01:00,
2013-03-21 01:06:00,52.9,48.5,29.87,NW,315,0.0,0.0,85,0.00,,,0.00,WeatherCatV1.14B232,2013-03-21 05:06:00,
2013-03-21 01:11:00,52.9,48.5,29.88,West,270,0.0,0.0,85,0.00,,,0.00,WeatherCatV1.14B232,2013-03-21 05:11:00,
2013-03-21 01:16:00,52.7,48.3,29.88,WSW,247,0.0,0.0,85,0.00,,,0.00,WeatherCatV1.14B232,2013-03-21 05:16:00,
2013-03-21 01:21:00,52.7,48.3,29.88,WSW,247,0.0,0.0,85,0.00,,,0.00,WeatherCatV1.14B232,2013-03-21 05:21:00,
2013-03-21 01:26:00,52.5,48.1,29.87,WSW,247,0.0,0.0,85,0.00,,,0.00,WeatherCatV1.14B232,2013-03-21 05:26:00,
2013-03-21 01:31:00,52.5,48.1,29.87,WSW,247,0.0,0.0,85,0.00,,,0.00,WeatherCatV1.14B232,2013-03-21 05:31:00,
2013-03-21 01:36:00,52.5,48.1,29.88,WSW,247,0.0,0.0,85,0.00,,,0.00,WeatherCatV1.14B232,2013-03-21 05:36:00,
2013-03-21 01:41:00,52.3,47.9,29.88,WSW,247,0.0,0.0,85,0.00,,,0.00,WeatherCatV1.14B232,2013-03-21 05:41:00,
2013-03-21 01:46:00,52.3,47.9,29.87,West,270,0.0,0.0,85,0.00,,,0.00,WeatherCatV1.14B232,2013-03-21 05:46:00,
2013-03-21 01:51:00,52.3,47.9,29.87,WSW,247,0.0,0.0,85,0.00,,,0.00,WeatherCatV1.14B232,2013-03-21 05:51:00,
2013-03-21 01:56:00,52.3,47.9,29.87,NW,315,0.0,0.0,85,0.00,,,0.00,WeatherCatV1.14B232,2013-03-21 05:56:00,
2013-03-21 02:03:00,52.2,47.8,29.88,West,270,0.0,0.0,85,0.00,,,0.00,WeatherCatV1.14B232,2013-03-21 06:03:00,
2013-03-21 02:08:00,52.2,47.8,29.87,WSW,247,0.0,0.0,85,0.00,,,0.00,WeatherCatV1.14B232,2013-03-21 06:08:00,
2013-03-21 02:13:00,52.0,47.6,29.87,West,270,0.0,0.0,85,0.00,,,0.00,WeatherCatV1.14B232,2013-03-21 06:13:00,
2013-03-21 02:18:00,52.0,47.6,29.87,West,270,0.0,0.0,85,0.00,,,0.00,WeatherCatV1.14B232,2013-03-21 06:18:00,
2013-03-21 02:23:00,52.0,47.6,29.88,West,270,0.0,0.0,85,0.00,,,0.00,WeatherCatV1.14B232,2013-03-21 06:23:00,
2013-03-21 02:28:00,52.0,47.9,29.87,West,270,0.0,0.0,86,0.00,,,0.00,WeatherCatV1.14B232,2013-03-21 06:28:00,
2013-03-21 02:33:00,52.0,47.9,29.86,West,270,0.0,0.0,86,0.00,,,0.00,WeatherCatV1.14B232,2013-03-21 06:33:00,
2013-03-21 02:38:00,52.0,47.9,29.87,West,270,0.0,0.0,86,0.00,,,0.00,WeatherCatV1.14B232,2013-03-21 06:38:00,
2013-03-21 02:43:00,52.0,47.9,29.86,West,270,0.0,0.0,86,0.00,,,0.00,WeatherCatV1.14B232,2013-03-21 06:43:00,
2013-03-21 02:48:00,51.8,47.9,29.86,WNW,292,0.0,0.0,86,0.00,,,0.00,WeatherCatV1.14B232,2013-03-21 06:48:00,
2013-03-21 02:53:00,51.8,47.7,29.87,West,270,0.0,0.0,86,0.00,,,0.00,WeatherCatV1.14B232,2013-03-21 06:53:00,
2013-03-21 02:58:00,51.8,47.7,29.87,West,270,0.0,0.0,86,0.00,,,0.00,WeatherCatV1.14B232,2013-03-21 06:58:00,
2013-03-21 03:08:00,51.6,47.5,29.87,North,-999,-999.0,0.0,86,0.00,,,0.00,WeatherCatV1.14B232,2013-03-21 07:08:00,
2013-03-21 03:13:00,51.6,47.5,29.88,West,270,0.0,0.0,86,0.00,,,0.00,WeatherCatV1.14B232,2013-03-21 07:13:00,
2013-03-21 03:18:00,51.6,47.5,29.88,WNW,292,2.2,2.2,86,0.00,,,0.00,WeatherCatV1.14B232,2013-03-21 07:18:00,
2013-03-21 03:23:00,51.6,47.5,29.88,West,270,0.0,0.0,86,0.00,,,0.00,WeatherCatV1.14B232,2013-03-21 07:23:00,
2013-03-21 03:28:00,51.4,47.3,29.88,NW,315,0.0,0.0,86,0.00,,,0.00,WeatherCatV1.14B232,2013-03-21 07:28:00,
2013-03-21 03:33:00,51.4,47.3,29.87,NW,315,2.2,2.2,86,0.00,,,0.00,WeatherCatV1.14B232,2013-03-21 07:33:00,
2013-03-21 03:38:00,51.3,46.8,29.88,West,270,0.0,0.0,85,0.00,,,0.00,WeatherCatV1.14B232,2013-03-21 07:38:00,
2013-03-21 03:43:00,51.1,46.7,29.88,NW,315,0.0,0.0,85,0.00,,,0.00,WeatherCatV1.14B232,2013-03-21 07:43:00,
2013-03-21 03:48:00,51.1,46.7,29.88,NNW,337,0.0,0.0,85,0.00,,,0.00,WeatherCatV1.14B232,2013-03-21 07:48:00,
2013-03-21 03:53:00,51.1,46.7,29.88,WNW,292,0.0,0.0,85,0.00,,,0.00,WeatherCatV1.14B232,2013-03-21 07:53:00,
2013-03-21 03:58:00,50.9,46.5,29.88,NW,315,0.0,0.0,85,0.00,,,0.00,WeatherCatV1.14B232,2013-03-21 07:58:00,
2013-03-21 04:03:00,50.7,46.3,29.88,WNW,292,0.0,2.5,85,0.00,,,0.00,WeatherCatV1.14B232,2013-03-21 08:03:00,
2013-03-21 04:08:00,50.7,46.0,29.87,NW,315,0.0,0.0,84,0.00,,,0.00,WeatherCatV1.14B232,2013-03-21 08:08:00,
2013-03-21 04:13:00,50.5,45.8,29.87,NNW,337,0.0,0.0,84,0.00,,,0.00,WeatherCatV1.14B232,2013-03-21 08:13:00,
2013-03-21 04:18:00,50.5,45.8,29.87,NW,315,0.0,1.3,84,0.00,,,0.00,WeatherCatV1.14B232,2013-03-21 08:18:00,
2013-03-21 04:23:00,50.4,45.6,29.87,NNW,337,0.9,0.9,84,0.00,,,0.00,WeatherCatV1.14B232,2013-03-21 08:23:00,
2013-03-21 04:28:00,50.2,45.5,29.87,WNW,292,0.0,0.0,84,0.00,,,0.00,WeatherCatV1.14B232,2013-03-21 08:28:00,
2013-03-21 04:33:00,50.2,45.2,29.87,WNW,292,0.0,0.0,83,0.00,,,0.00,WeatherCatV1.14B232,2013-03-21 08:33:00,
2013-03-21 04:38:00,49.8,44.8,29.86,West,270,0.0,0.0,83,0.00,,,0.00,WeatherCatV1.14B232,2013-03-21 08:38:00,
2013-03-21 04:43:00,49.8,44.8,29.86,WNW,292,0.0,0.0,83,0.00,,,0.00,WeatherCatV1.14B232,2013-03-21 08:43:00,
2013-03-21 04:48:00,49.6,44.6,29.86,WNW,292,0.0,0.0,83,0.00,,,0.00,WeatherCatV1.14B232,2013-03-21 08:48:00,
2013-03-21 04:53:00,49.6,44.6,29.86,WNW,292,0.0,0.0,83,0.00,,,0.00,WeatherCatV1.14B232,2013-03-21 08:53:00,
2013-03-21 04:58:00,49.6,44.6,29.86,WNW,292,0.0,0.0,83,0.00,,,0.00,WeatherCatV1.14B232,2013-03-21 08:58:00,
2013-03-21 05:03:00,49.3,44.3,29.86,NW,315,0.0,0.0,83,0.00,,,0.00,WeatherCatV1.14B232,2013-03-21 09:03:00,
2013-03-21 05:08:00,49.3,44.3,29.86,West,270,0.0,0.0,83,0.00,,,0.00,WeatherCatV1.14B232,2013-03-21 09:08:00,
2013-03-21 05:13:00,49.1,44.1,29.86,West,270,0.0,0.0,83,0.00,,,0.00,WeatherCatV1.14B232,2013-03-21 09:13:00,
2013-03-21 05:18:00,48.9,43.6,29.86,WNW,292,0.0,0.0,82,0.00,,,0.00,WeatherCatV1.14B232,2013-03-21 09:18:00,
2013-03-21 05:23:00,48.9,43.6,29.86,West,270,0.0,0.0,82,0.00,,,0.00,WeatherCatV1.14B232,2013-03-21 09:23:00,
2013-03-21 05:28:00,48.7,43.4,29.86,WNW,292,0.0,0.0,82,0.00,,,0.00,WeatherCatV1.14B232,2013-03-21 09:28:00,
2013-03-21 05:33:00,48.6,43.2,29.87,WNW,292,0.0,0.0,82,0.00,,,0.00,WeatherCatV1.14B232,2013-03-21 09:33:00,
2013-03-21 05:38:00,48.4,43.1,29.87,West,270,0.0,0.0,82,0.00,,,0.00,WeatherCatV1.14B232,2013-03-21 09:38:00,
2013-03-21 05:43:00,48.4,43.1,29.86,WNW,292,0.0,0.0,82,0.00,,,0.00,WeatherCatV1.14B232,2013-03-21 09:43:00,
2013-03-21 05:48:00,48.2,42.9,29.87,West,270,0.0,0.0,82,0.00,,,0.00,WeatherCatV1.14B232,2013-03-21 09:48:00,
2013-03-21 05:53:00,48.0,42.7,29.88,West,270,0.0,0.0,82,0.00,,,0.00,WeatherCatV1.14B232,2013-03-21 09:53:00,
2013-03-21 05:58:00,48.0,42.7,29.88,NNW,337,0.0,0.0,82,0.00,,,0.00,WeatherCatV1.14B232,2013-03-21 09:58:00,
2013-03-21 06:03:00,47.8,42.6,29.88,WNW,292,0.0,0.0,82,0.00,,,0.00,WeatherCatV1.14B232,2013-03-21 10:03:00,
2013-03-21 06:08:00,47.7,42.4,29.88,WNW,292,0.0,0.0,82,0.00,,,0.00,WeatherCatV1.14B232,2013-03-21 10:08:00,
2013-03-21 06:13:00,47.5,42.2,29.88,WNW,292,0.0,0.0,82,0.00,,,0.00,WeatherCatV1.14B232,2013-03-21 10:13:00,
2013-03-21 06:18:00,47.5,41.9,29.89,West,270,0.0,0.0,81,0.00,,,0.00,WeatherCatV1.14B232,2013-03-21 10:18:00,
2013-03-21 06:23:00,47.3,41.8,29.89,NW,315,0.0,0.0,81,0.00,,,0.00,WeatherCatV1.14B232,2013-03-21 10:23:00,
2013-03-21 06:28:00,47.3,41.8,29.89,WNW,292,0.0,0.0,81,0.00,,,0.00,WeatherCatV1.14B232,2013-03-21 10:28:00,
2013-03-21 06:33:00,47.1,41.6,29.89,NNW,337,4.0,4.0,81,0.00,,,0.00,WeatherCatV1.14B232,2013-03-21 10:33:00,
2013-03-21 06:38:00,47.1,41.6,29.89,NNW,337,0.0,0.0,81,0.00,,,0.00,WeatherCatV1.14B232,2013-03-21 10:38:00,
2013-03-21 06:43:00,47.1,41.3,29.90,NNW,337,2.2,2.2,80,0.00,,,0.00,WeatherCatV1.14B232,2013-03-21 10:43:00,
2013-03-21 06:48:00,46.9,41.1,29.90,WNW,292,0.0,0.0,80,0.00,,,0.00,WeatherCatV1.14B232,2013-03-21 10:48:00,
2013-03-21 06:53:00,46.9,41.1,29.89,NW,315,0.0,0.0,80,0.00,,,0.00,WeatherCatV1.14B232,2013-03-21 10:53:00,
2013-03-21 06:58:00,46.9,41.1,29.90,NNW,337,1.3,1.3,80,0.00,,,0.00,WeatherCatV1.14B232,2013-03-21 10:58:00,
2013-03-21 07:03:00,46.9,41.1,29.90,WNW,292,0.0,0.0,80,0.00,,,0.00,WeatherCatV1.14B232,2013-03-21 11:03:00,
2013-03-21 07:08:00,46.8,41.0,29.91,NW,315,0.0,0.0,80,0.00,,,0.00,WeatherCatV1.14B232,2013-03-21 11:08:00,
2013-03-21 07:13:00,46.8,41.0,29.91,WNW,292,0.0,0.0,80,0.00,,,0.00,WeatherCatV1.14B232,2013-03-21 11:13:00,
2013-03-21 07:18:00,46.8,41.0,29.91,WNW,292,0.0,0.0,80,0.00,,,0.00,WeatherCatV1.14B232,2013-03-21 11:18:00,
2013-03-21 07:23:00,46.6,40.5,29.91,WNW,292,0.0,0.0,79,0.00,,,0.00,WeatherCatV1.14B232,2013-03-21 11:23:00,
2013-03-21 07:28:00,46.6,40.5,29.91,NW,315,0.0,0.0,79,0.00,,,0.00,WeatherCatV1.14B232,2013-03-21 11:28:00,
2013-03-21 07:33:00,46.6,40.5,29.91,NNW,337,0.0,0.0,79,0.00,,,0.00,WeatherCatV1.14B232,2013-03-21 11:33:00,
2013-03-21 07:38:00,46.6,40.5,29.91,NNW,337,0.0,0.0,79,0.00,,,0.00,WeatherCatV1.14B232,2013-03-21 11:38:00,
2013-03-21 07:43:00,46.6,40.5,29.91,WNW,292,0.0,0.0,79,0.00,,,0.00,WeatherCatV1.14B232,2013-03-21 11:43:00,
2013-03-21 07:48:00,46.6,40.5,29.91,West,270,0.0,0.0,79,0.00,,,0.00,WeatherCatV1.14B232,2013-03-21 11:48:00,
2013-03-21 07:53:00,46.6,40.1,29.91,NW,315,1.3,1.3,78,0.00,,,0.00,WeatherCatV1.14B232,2013-03-21 11:53:00,
2013-03-21 07:58:00,46.6,40.1,29.91,WNW,292,0.0,0.0,78,0.00,,,0.00,WeatherCatV1.14B232,2013-03-21 11:58:00,
2013-03-21 08:03:00,46.6,40.1,29.92,West,270,0.0,0.0,78,0.00,,,0.00,WeatherCatV1.14B232,2013-03-21 12:03:00,
2013-03-21 08:08:00,46.8,40.3,29.93,WNW,292,0.0,0.0,78,0.00,,,0.00,WeatherCatV1.14B232,2013-03-21 12:08:00,
2013-03-21 08:13:00,46.6,40.1,29.93,WSW,247,0.0,0.0,78,0.00,,,0.00,WeatherCatV1.14B232,2013-03-21 12:13:00,
2013-03-21 08:18:00,46.8,40.3,29.93,WSW,247,0.0,0.0,78,0.00,,,0.00,WeatherCatV1.14B232,2013-03-21 12:18:00,
2013-03-21 08:23:00,46.8,40.3,29.93,NW,315,1.3,1.3,78,0.00,,,0.00,WeatherCatV1.14B232,2013-03-21 12:23:00,
2013-03-21 08:28:00,46.9,40.4,29.93,West,270,0.0,0.0,78,0.00,,,0.00,WeatherCatV1.14B232,2013-03-21 12:28:00,
2013-03-21 08:33:00,46.9,40.4,29.94,WNW,292,0.0,0.0,78,0.00,,,0.00,WeatherCatV1.14B232,2013-03-21 12:33:00,
2013-03-21 08:38:00,46.9,40.4,29.94,WSW,247,0.0,0.0,78,0.00,,,0.00,WeatherCatV1.14B232,2013-03-21 12:38:00,
2013-03-21 08:43:00,47.1,40.6,29.94,WNW,292,0.0,0.0,78,0.00,,,0.00,WeatherCatV1.14B232,2013-03-21 12:43:00,
2013-03-21 08:48:00,47.1,40.6,29.94,West,270,0.0,0.0,78,0.00,,,0.00,WeatherCatV1.14B232,2013-03-21 12:48:00,
2013-03-21 08:53:00,47.3,40.8,29.94,SW,225,0.0,0.0,78,0.00,,,0.00,WeatherCatV1.14B232,2013-03-21 12:53:00,
2013-03-21 08:58:00,47.3,40.8,29.94,WNW,292,0.0,0.0,78,0.00,,,0.00,WeatherCatV1.14B232,2013-03-21 12:58:00,
2013-03-21 09:03:00,47.5,40.9,29.95,NE,45,1.8,1.8,78,0.00,,,0.00,WeatherCatV1.14B232,2013-03-21 13:03:00,
2013-03-21 09:08:00,47.7,41.1,29.95,North,0,7.4,7.4,78,0.00,,,0.00,WeatherCatV1.14B232,2013-03-21 13:08:00,
2013-03-21 09:13:00,47.8,40.6,29.94,NNW,337,0.7,0.7,76,0.00,,,0.00,WeatherCatV1.14B232,2013-03-21 13:13:00,
2013-03-21 09:18:00,48.0,40.4,29.94,WNW,292,2.0,2.0,75,0.00,,,0.00,WeatherCatV1.14B232,2013-03-21 13:18:00,
2013-03-21 09:23:00,48.2,40.5,29.94,North,0,2.7,2.7,75,0.00,,,0.00,WeatherCatV1.14B232,2013-03-21 13:23:00,
2013-03-21 09:28:00,48.4,40.4,29.95,WNW,292,0.0,0.0,74,0.00,,,0.00,WeatherCatV1.14B232,2013-03-21 13:28:00,
2013-03-21 09:33:00,48.7,40.1,29.94,NE,45,3.4,4.2,72,0.00,,,0.00,WeatherCatV1.14B232,2013-03-21 13:33:00,
2013-03-21 09:38:00,48.9,39.9,29.94,ESE,112,0.0,0.0,71,0.00,,,0.00,WeatherCatV1.14B232,2013-03-21 13:38:00,
2013-03-21 09:43:00,49.1,40.1,29.94,NW,315,2.5,2.5,70,0.00,,,0.00,WeatherCatV1.14B232,2013-03-21 13:43:00,
2013-03-21 09:48:00,49.5,40.1,29.94,North,0,0.9,5.4,70,0.00,,,0.00,WeatherCatV1.14B232,2013-03-21 13:48:00,
2013-03-21 09:53:00,49.6,39.9,29.93,NE,45,5.4,5.4,69,0.00,,,0.00,WeatherCatV1.14B232,2013-03-21 13:53:00,
2013-03-21 09:58:00,49.8,40.1,29.94,NE,45,2.0,2.0,69,0.00,,,0.00,WeatherCatV1.14B232,2013-03-21 13:58:00,
2013-03-21 10:03:00,50.2,40.0,29.94,NW,315,6.0,6.0,68,0.00,,,0.00,WeatherCatV1.14B232,2013-03-21 14:03:00,
2013-03-21 10:08:00,50.2,39.6,29.95,NNE,22,3.6,3.6,67,0.00,,,0.00,WeatherCatV1.14B232,2013-03-21 14:08:00,
2013-03-21 10:13:00,50.5,39.6,29.95,NNW,337,2.2,2.2,66,0.00,,,0.00,WeatherCatV1.14B232,2013-03-21 14:13:00,
2013-03-21 10:18:00,50.7,39.7,29.95,North,0,7.4,7.4,66,0.00,,,0.00,WeatherCatV1.14B232,2013-03-21 14:18:00,
2013-03-21 10:23:00,51.1,40.1,29.95,North,0,0.0,0.0,66,0.00,,,0.00,WeatherCatV1.14B232,2013-03-21 14:23:00,
2013-03-21 10:28:00,51.3,40.3,29.95,North,0,9.6,9.6,66,0.00,,,0.00,WeatherCatV1.14B232,2013-03-21 14:28:00,
2013-03-21 10:33:00,51.6,40.6,29.95,West,270,8.3,8.3,66,0.00,,,0.00,WeatherCatV1.14B232,2013-03-21 14:33:00,
2013-03-21 10:38:00,52.0,40.5,29.95,NNW,337,6.5,6.5,65,0.00,,,0.00,WeatherCatV1.14B232,2013-03-21 14:38:00,
2013-03-21 10:43:00,52.2,40.3,29.95,WNW,292,2.2,2.2,64,0.00,,,0.00,WeatherCatV1.14B232,2013-03-21 14:43:00,
2013-03-21 10:48:00,52.5,40.2,29.95,NW,315,2.0,3.4,63,0.00,,,0.00,WeatherCatV1.14B232,2013-03-21 14:48:00,
2013-03-21 10:53:00,52.5,40.2,29.95,North,0,2.9,2.9,63,0.00,,,0.00,WeatherCatV1.14B232,2013-03-21 14:53:00,
2013-03-21 10:58:00,52.9,40.6,29.95,WNW,292,4.7,4.7,63,0.00,,,0.00,WeatherCatV1.14B232,2013-03-21 14:58:00,
2013-03-21 11:03:00,53.2,40.1,29.94,NNW,337,3.6,3.8,61,0.00,,,0.00,WeatherCatV1.14B232,2013-03-21 15:03:00,
2013-03-21 11:08:00,53.4,40.3,29.95,NNE,22,2.2,3.1,61,0.00,,,0.00,WeatherCatV1.14B232,2013-03-21 15:08:00,
2013-03-21 11:13:00,53.8,40.7,29.94,SSE,157,0.0,0.0,61,0.00,,,0.00,WeatherCatV1.14B232,2013-03-21 15:13:00,
2013-03-21 11:18:00,54.1,40.6,29.94,WNW,292,3.8,3.8,60,0.00,,,0.00,WeatherCatV1.14B232,2013-03-21 15:18:00,
2013-03-21 11:23:00,54.3,40.3,29.94,North,0,4.5,4.5,59,0.00,,,0.00,WeatherCatV1.14B232,2013-03-21 15:23:00,
2013-03-21 11:28:00,54.3,39.8,29.95,NW,315,7.4,7.4,58,0.00,,,0.00,WeatherCatV1.14B232,2013-03-21 15:28:00,
2013-03-21 11:33:00,54.5,40.0,29.95,ESE,112,0.0,3.1,58,0.00,,,0.00,WeatherCatV1.14B232,2013-03-21 15:33:00,
2013-03-21 11:38:00,54.9,40.8,29.95,SW,225,3.1,3.1,59,0.00,,,0.00,WeatherCatV1.14B232,2013-03-21 15:38:00,
2013-03-21 11:43:00,55.2,40.6,29.95,WNW,292,3.1,3.1,58,0.00,,,0.00,WeatherCatV1.14B232,2013-03-21 15:43:00,
2013-03-21 11:48:00,55.8,40.2,29.95,NNW,337,3.1,3.1,56,0.00,,,0.00,WeatherCatV1.14B232,2013-03-21 15:48:00,
2013-03-21 11:53:00,55.9,39.9,29.95,ENE,67,3.8,3.8,55,0.00,,,0.00,WeatherCatV1.14B232,2013-03-21 15:53:00,
2013-03-21 11:58:00,56.1,40.1,29.95,West,270,0.0,0.0,55,0.00,,,0.00,WeatherCatV1.14B232,2013-03-21 15:58:00,
2013-03-21 12:03:00,56.3,40.3,29.95,West,270,0.0,2.2,55,0.00,,,0.00,WeatherCatV1.14B232,2013-03-21 16:03:00,
2013-03-21 12:08:00,56.5,40.5,29.94,WNW,292,0.0,0.0,55,0.00,,,0.00,WeatherCatV1.14B232,2013-03-21 16:08:00,
2013-03-21 12:13:00,56.8,40.8,29.94,WNW,292,3.6,3.6,55,0.00,,,0.00,WeatherCatV1.14B232,2013-03-21 16:13:00,
2013-03-21 12:18:00,57.4,40.4,29.94,NNW,337,5.1,5.1,53,0.00,,,0.00,WeatherCatV1.14B232,2013-03-21 16:18:00,
2013-03-21 12:23:00,57.4,40.4,29.94,NNE,22,3.6,3.6,53,0.00,,,0.00,WeatherCatV1.14B232,2013-03-21 16:23:00,
2013-03-21 12:28:00,57.9,40.4,29.94,West,270,0.0,7.6,52,0.00,,,0.00,WeatherCatV1.14B232,2013-03-21 16:28:00,
2013-03-21 12:33:00,58.1,40.6,29.94,West,270,0.0,1.3,52,0.00,,,0.00,WeatherCatV1.14B232,2013-03-21 16:33:00,
2013-03-21 12:38:00,58.6,41.1,29.94,WSW,247,2.0,2.0,52,0.00,,,0.00,WeatherCatV1.14B232,2013-03-21 16:38:00,
2013-03-21 12:43:00,58.6,41.1,29.93,NW,315,3.8,3.8,52,0.00,,,0.00,WeatherCatV1.14B232,2013-03-21 16:43:00,
2013-03-21 12:48:00,59.4,41.7,29.93,West,270,9.2,9.2,52,0.00,,,0.00,WeatherCatV1.14B232,2013-03-21 16:48:00,
2013-03-21 12:53:00,59.5,41.4,29.93,West,270,0.0,0.0,51,0.00,,,0.00,WeatherCatV1.14B232,2013-03-21 16:53:00,
2013-03-21 12:58:00,60.1,41.9,29.93,WSW,247,0.7,3.1,51,0.00,,,0.00,WeatherCatV1.14B232,2013-03-21 16:58:00,
2013-03-21 13:03:00,60.4,41.2,29.94,SW,225,2.5,2.5,49,0.00,,,0.00,WeatherCatV1.14B232,2013-03-21 17:03:00,
2013-03-21 13:08:00,60.4,41.2,29.93,WNW,292,0.0,0.0,49,0.00,,,0.00,WeatherCatV1.14B232,2013-03-21 17:08:00,
2013-03-21 13:13:00,60.6,40.8,29.93,NW,315,1.3,3.1,48,0.00,,,0.00,WeatherCatV1.14B232,2013-03-21 17:13:00,
2013-03-21 13:18:00,61.0,41.1,29.93,NNW,337,8.1,8.1,48,0.00,,,0.00,WeatherCatV1.14B232,2013-03-21 17:18:00,
2013-03-21 13:23:00,61.3,41.4,29.93,West,270,2.7,2.7,48,0.00,,,0.00,WeatherCatV1.14B232,2013-03-21 17:23:00,
2013-03-21 13:28:00,61.7,41.6,29.92,South,180,2.5,2.5,48,0.00,,,0.00,WeatherCatV1.14B232,2013-03-21 17:28:00,
2013-03-21 13:33:00,61.7,40.6,29.92,NNW,337,6.9,6.9,46,0.00,,,0.00,WeatherCatV1.14B232,2013-03-21 17:33:00,
2013-03-21 13:38:00,61.9,40.2,29.91,SSW,202,3.1,3.1,45,0.00,,,0.00,WeatherCatV1.14B232,2013-03-21 17:38:00,
2013-03-21 13:43:00,61.9,40.7,29.91,NW,315,2.0,2.0,45,0.00,,,0.00,WeatherCatV1.14B232,2013-03-21 17:43:00,
2013-03-21 13:48:00,62.2,40.5,29.91,NNW,337,0.0,0.9,45,0.00,,,0.00,WeatherCatV1.14B232,2013-03-21 17:48:00,
2013-03-21 13:53:00,62.4,40.7,29.90,NW,315,6.7,6.7,45,0.00,,,0.00,WeatherCatV1.14B232,2013-03-21 17:53:00,
2013-03-21 13:58:00,62.4,41.2,29.90,WNW,292,2.0,2.0,46,0.00,,,0.00,WeatherCatV1.14B232,2013-03-21 17:58:00,
2013-03-21 14:03:00,62.4,41.2,29.90,West,270,1.6,1.6,46,0.00,,,0.00,WeatherCatV1.14B232,2013-03-21 18:03:00,
2013-03-21 14:08:00,62.4,41.2,29.90,WNW,292,7.4,7.4,46,0.00,,,0.00,WeatherCatV1.14B232,2013-03-21 18:08:00,
2013-03-21 14:13:00,62.6,40.8,29.89,SSE,157,0.0,0.0,44,0.00,,,0.00,WeatherCatV1.14B232,2013-03-21 18:13:00,
2013-03-21 14:18:00,62.8,40.4,29.89,WSW,247,3.4,3.4,44,0.00,,,0.00,WeatherCatV1.14B232,2013-03-21 18:18:00,
2013-03-21 14:23:00,63.0,40.0,29.90,WSW,247,0.9,0.9,43,0.00,,,0.00,WeatherCatV1.14B232,2013-03-21 18:23:00,
2013-03-21 14:28:00,63.0,40.0,29.89,West,270,0.0,2.0,43,0.00,,,0.00,WeatherCatV1.14B232,2013-03-21 18:28:00,
2013-03-21 14:33:00,63.0,40.0,29.89,WNW,292,3.1,8.9,43,0.00,,,0.00,WeatherCatV1.14B232,2013-03-21 18:33:00,
2013-03-21 14:38:00,63.1,40.2,29.89,NNE,22,7.4,7.4,43,0.00,,,0.00,WeatherCatV1.14B232,2013-03-21 18:38:00,
2013-03-21 14:43:00,63.5,39.3,29.89,West,270,9.8,9.8,42,0.00,,,0.00,WeatherCatV1.14B232,2013-03-21 18:43:00,
2013-03-21 14:48:00,63.5,38.8,29.88,West,270,2.2,2.2,40,0.00,,,0.00,WeatherCatV1.14B232,2013-03-21 18:48:00,
2013-03-21 14:53:00,63.5,39.3,29.88,West,270,3.8,3.8,41,0.00,,,0.00,WeatherCatV1.14B232,2013-03-21 18:53:00,
2013-03-21 14:58:00,63.5,38.8,29.88,WNW,292,2.9,4.0,40,0.00,,,0.00,WeatherCatV1.14B232,2013-03-21 18:58:00,
2013-03-21 15:03:00,63.5,38.0,29.88,NNE,22,2.0,2.2,39,0.00,,,0.00,WeatherCatV1.14B232,2013-03-21 19:03:00,
2013-03-21 15:08:00,63.7,38.9,29.87,WNW,292,2.0,2.0,40,0.00,,,0.00,WeatherCatV1.14B232,2013-03-21 19:08:00,
2013-03-21 15:13:00,63.9,38.4,29.87,West,270,2.2,2.2,39,0.00,,,0.00,WeatherCatV1.14B232,2013-03-21 19:13:00,
2013-03-21 15:15:00,62.8,40.4,29.89,SSW,197,0.0,0.0,44,0.00,,,0.00,WeatherCatV1.14B232,2013-03-21 19:15:00,
2013-03-21 15:20:00,63.0,40.4,29.89,SSW,197,2.8,3.4,44,0.00,,,0.00,WeatherCatV1.14B232,2013-03-21 19:20:00,
2013-03-21 15:25:00,63.0,40.0,29.90,WSW,249,1.6,2.2,43,0.00,,,0.00,WeatherCatV1.14B232,2013-03-21 19:25:00,
2013-03-21 15:30:00,63.0,40.0,29.89,West,262,2.0,2.0,43,0.00,,,0.00,WeatherCatV1.14B232,2013-03-21 19:30:00,
2013-03-21 15:35:00,63.0,40.0,29.89,WNW,289,3.1,8.9,43,0.00,,,0.00,WeatherCatV1.14B232,2013-03-21 19:35:00,
2013-03-21 15:40:00,63.3,40.2,29.89,North,350,5.0,7.4,43,0.00,,,0.00,WeatherCatV1.14B232,2013-03-21 19:40:00,
2013-03-21 15:45:00,63.5,39.3,29.89,WNW,283,9.8,9.8,41,0.00,,,0.00,WeatherCatV1.14B232,2013-03-21 19:45:00,
2013-03-21 15:50:00,63.5,38.8,29.88,WNW,292,2.2,2.2,40,0.00,,,0.00,WeatherCatV1.14B232,2013-03-21 19:50:00,
2013-03-21 16:03:00,63.5,39.3,29.88,West,281,7.9,8.5,41,0.00,,,0.00,WeatherCatV1.14B232,2013-03-21 20:03:00,
2013-03-21 16:08:00,65.1,38.8,29.86,SW,225,4.7,4.7,38,0.00,,,0.00,WeatherCatV1.14B232,2013-03-21 20:08:00,
2013-03-21 16:13:00,65.1,38.0,29.85,West,270,4.9,4.9,37,0.00,,,0.00,WeatherCatV1.14B232,2013-03-21 20:13:00,
2013-03-21 16:18:00,65.3,37.5,29.85,WNW,292,3.8,3.8,36,0.00,,,0.00,WeatherCatV1.14B232,2013-03-21 20:18:00,
2013-03-21 16:23:00,65.5,36.9,29.85,South,180,1.8,1.8,35,0.00,,,0.00,WeatherCatV1.14B232,2013-03-21 20:23:00,
2013-03-21 16:28:00,65.8,38.0,29.85,WSW,247,3.1,3.1,36,0.00,,,0.00,WeatherCatV1.14B232,2013-03-21 20:28:00,
2013-03-21 16:33:00,66.0,37.4,29.85,WNW,292,5.8,5.8,35,0.00,,,0.00,WeatherCatV1.14B232,2013-03-21 20:33:00,
2013-03-21 16:38:00,66.0,38.1,29.85,NW,315,3.1,3.1,36,0.00,,,0.00,WeatherCatV1.14B232,2013-03-21 20:38:00,
2013-03-21 16:43:00,65.8,38.0,29.85,WSW,247,2.0,2.0,36,0.00,,,0.00,WeatherCatV1.14B232,2013-03-21 20:43:00,
2013-03-21 16:48:00,65.7,37.1,29.85,WNW,292,2.2,2.5,35,0.00,,,0.00,WeatherCatV1.14B232,2013-03-21 20:48:00,
2013-03-21 16:53:00,65.5,36.9,29.85,WSW,247,1.1,1.1,35,0.00,,,0.00,WeatherCatV1.14B232,2013-03-21 20:53:00,
2013-03-21 16:58:00,65.3,37.5,29.85,West,270,0.0,0.0,36,0.00,,,0.00,WeatherCatV1.14B232,2013-03-21 20:58:00,
2013-03-21 17:03:00,65.1,37.3,29.85,West,270,6.9,6.9,36,0.00,,,0.00,WeatherCatV1.14B232,2013-03-21 21:03:00,
2013-03-21 17:08:00,65.1,37.3,29.85,WSW,247,2.7,2.7,36,0.00,,,0.00,WeatherCatV1.14B232,2013-03-21 21:08:00,
2013-03-21 17:13:00,65.3,36.8,29.85,NW,315,0.0,0.0,35,0.00,,,0.00,WeatherCatV1.14B232,2013-03-21 21:13:00,
2013-03-21 17:18:00,65.3,36.8,29.85,North,0,1.6,1.6,35,0.00,,,0.00,WeatherCatV1.14B232,2013-03-21 21:18:00,
2013-03-21 17:23:00,65.1,35.9,29.85,NW,315,1.1,1.1,34,0.00,,,0.00,WeatherCatV1.14B232,2013-03-21 21:23:00,
2013-03-21 17:28:00,65.1,35.9,29.85,NNW,337,3.1,3.1,34,0.00,,,0.00,WeatherCatV1.14B232,2013-03-21 21:28:00,
2013-03-21 17:33:00,65.3,36.8,29.85,NNE,22,0.0,3.1,35,0.00,,,0.00,WeatherCatV1.14B232,2013-03-21 21:33:00,
2013-03-21 17:38:00,65.5,37.7,29.85,NNW,337,0.0,0.0,36,0.00,,,0.00,WeatherCatV1.14B232,2013-03-21 21:38:00,
2013-03-21 17:43:00,65.8,38.7,29.85,WSW,247,1.8,1.8,37,0.00,,,0.00,WeatherCatV1.14B232,2013-03-21 21:43:00,
2013-03-21 17:48:00,65.8,38.0,29.86,North,0,5.6,5.6,36,0.00,,,0.00,WeatherCatV1.14B232,2013-03-21 21:48:00,
2013-03-21 17:53:00,65.7,37.1,29.86,NNW,337,4.9,4.9,35,0.00,,,0.00,WeatherCatV1.14B232,2013-03-21 21:53:00,
2013-03-21 17:58:00,65.7,36.4,29.86,NNW,337,4.2,4.2,34,0.00,,,0.00,WeatherCatV1.14B232,2013-03-21 21:58:00,
2013-03-21 18:03:00,65.3,36.0,29.85,WNW,292,1.6,2.7,34,0.00,,,0.00,WeatherCatV1.14B232,2013-03-21 22:03:00,
2013-03-21 18:08:00,65.1,35.9,29.86,West,270,0.0,0.0,34,0.00,,,0.00,WeatherCatV1.14B232,2013-03-21 22:08:00,
2013-03-21 18:13:00,64.9,36.4,29.86,WNW,292,0.0,0.0,35,0.00,,,0.00,WeatherCatV1.14B232,2013-03-21 22:13:00,
2013-03-21 18:18:00,64.9,37.2,29.86,WSW,247,0.0,0.0,36,0.00,,,0.00,WeatherCatV1.14B232,2013-03-21 22:18:00,
2013-03-21 18:23:00,64.8,37.0,29.86,West,270,0.0,0.0,36,0.00,,,0.00,WeatherCatV1.14B232,2013-03-21 22:23:00,
2013-03-21 18:28:00,64.6,36.8,29.86,NW,315,0.0,0.0,36,0.00,,,0.00,WeatherCatV1.14B232,2013-03-21 22:28:00,
2013-03-21 18:33:00,64.4,36.7,29.86,WSW,247,0.0,0.0,36,0.00,,,0.00,WeatherCatV1.14B232,2013-03-21 22:33:00,
2013-03-21 18:38:00,64.2,36.5,29.86,SW,225,0.0,0.0,36,0.00,,,0.00,WeatherCatV1.14B232,2013-03-21 22:38:00,
2013-03-21 18:43:00,64.0,36.4,29.86,SW,225,1.1,1.1,36,0.00,,,0.00,WeatherCatV1.14B232,2013-03-21 22:43:00,
2013-03-21 18:48:00,63.7,36.8,29.87,West,270,0.0,0.0,37,0.00,,,0.00,WeatherCatV1.14B232,2013-03-21 22:48:00,
2013-03-21 18:53:00,63.5,36.6,29.87,WSW,247,0.0,0.0,37,0.00,,,0.00,WeatherCatV1.14B232,2013-03-21 22:53:00,
2013-03-21 18:58:00,63.3,36.4,29.87,SW,225,1.1,1.1,37,0.00,,,0.00,WeatherCatV1.14B232,2013-03-21 22:58:00,
2013-03-21 19:03:00,63.3,36.4,29.87,WSW,247,0.0,0.0,37,0.00,,,0.00,WeatherCatV1.14B232,2013-03-21 23:03:00,
2013-03-21 19:08:00,63.1,36.3,29.88,West,270,1.6,1.6,37,0.00,,,0.00,WeatherCatV1.14B232,2013-03-21 23:08:00,
2013-03-21 19:13:00,63.1,36.3,29.87,SSW,202,1.1,1.1,37,0.00,,,0.00,WeatherCatV1.14B232,2013-03-21 23:13:00,
2013-03-21 19:18:00,63.0,36.1,29.87,WSW,247,0.0,0.0,37,0.00,,,0.00,WeatherCatV1.14B232,2013-03-21 23:18:00,
2013-03-21 19:23:00,62.6,35.8,29.88,West,270,0.0,0.0,37,0.00,,,0.00,WeatherCatV1.14B232,2013-03-21 23:23:00,
2013-03-21 19:28:00,62.4,36.3,29.88,West,270,0.0,0.0,38,0.00,,,0.00,WeatherCatV1.14B232,2013-03-21 23:28:00,
2013-03-21 19:33:00,62.1,36.0,29.88,WSW,247,0.0,0.0,38,0.00,,,0.00,WeatherCatV1.14B232,2013-03-21 23:33:00,
2013-03-21 19:38:00,61.9,35.9,29.88,WSW,247,0.0,0.0,38,0.00,,,0.00,WeatherCatV1.14B232,2013-03-21 23:38:00,
2013-03-21 19:43:00,61.5,36.4,29.88,SW,225,0.0,0.0,39,0.00,,,0.00,WeatherCatV1.14B232,2013-03-21 23:43:00,
2013-03-21 19:48:00,61.3,36.8,29.88,SW,225,0.0,0.0,40,0.00,,,0.00,WeatherCatV1.14B232,2013-03-21 23:48:00,
2013-03-21 19:53:00,61.0,37.1,29.89,SW,225,0.0,0.0,41,0.00,,,0.00,WeatherCatV1.14B232,2013-03-21 23:53:00,
2013-03-21 19:58:00,60.6,36.7,29.89,SW,225,0.0,0.0,41,0.00,,,0.00,WeatherCatV1.14B232,2013-03-21 23:58:00,
2013-03-21 20:03:00,60.1,36.8,29.89,SW,225,0.0,0.0,42,0.00,,,0.00,WeatherCatV1.14B232,2013-03-22 00:03:00,
2013-03-21 20:08:00,59.7,36.5,29.89,SW,225,0.0,0.0,42,0.00,,,0.00,WeatherCatV1.14B232,2013-03-22 00:08:00,
2013-03-21 20:13:00,59.5,36.6,29.89,SW,225,0.0,0.0,43,0.00,,,0.00,WeatherCatV1.14B232,2013-03-22 00:13:00,
2013-03-21 20:18:00,58.8,36.8,29.89,SW,225,0.0,0.0,44,0.00,,,0.00,WeatherCatV1.14B232,2013-03-22 00:18:00,
2013-03-21 20:23:00,58.6,36.7,29.89,West,270,0.0,0.0,44,0.00,,,0.00,WeatherCatV1.14B232,2013-03-22 00:23:00,
2013-03-21 20:28:00,58.3,36.9,29.89,West,270,0.0,0.0,46,0.00,,,0.00,WeatherCatV1.14B232,2013-03-22 00:28:00,
2013-03-21 20:33:00,57.7,37.0,29.89,NW,315,0.0,0.0,46,0.00,,,0.00,WeatherCatV1.14B232,2013-03-22 00:33:00,
2013-03-21 20:38:00,57.4,37.3,29.90,NW,315,0.0,0.0,47,0.00,,,0.00,WeatherCatV1.14B232,2013-03-22 00:38:00,
2013-03-21 20:43:00,57.0,37.7,29.90,SW,225,0.0,0.0,48,0.00,,,0.00,WeatherCatV1.14B232,2013-03-22 00:43:00,
2013-03-21 20:48:00,57.0,38.1,29.90,NW,315,0.0,0.0,49,0.00,,,0.00,WeatherCatV1.14B232,2013-03-22 00:48:00,
2013-03-21 20:53:00,56.7,37.7,29.90,WSW,247,0.0,0.0,49,0.00,,,0.00,WeatherCatV1.14B232,2013-03-22 00:53:00,
2013-03-21 20:58:00,56.5,38.1,29.90,WSW,247,0.0,0.0,50,0.00,,,0.00,WeatherCatV1.14B232,2013-03-22 00:58:00,
2013-03-21 21:03:00,56.1,37.8,29.91,WSW,247,0.0,0.0,50,0.00,,,0.00,WeatherCatV1.14B232,2013-03-22 01:03:00,
2013-03-21 21:08:00,55.9,38.0,29.91,WSW,247,0.0,0.0,51,0.00,,,0.00,WeatherCatV1.14B232,2013-03-22 01:08:00,
2013-03-21 21:13:00,55.8,37.9,29.91,WSW,247,0.0,0.0,51,0.00,,,0.00,WeatherCatV1.14B232,2013-03-22 01:13:00,
2013-03-21 21:18:00,55.2,37.3,29.91,WSW,247,0.0,0.0,51,0.00,,,0.00,WeatherCatV1.14B232,2013-03-22 01:18:00,
2013-03-21 21:23:00,55.0,37.7,29.91,WSW,247,0.0,0.0,52,0.00,,,0.00,WeatherCatV1.14B232,2013-03-22 01:23:00,
2013-03-21 21:28:00,54.7,37.8,29.91,WSW,247,0.0,0.0,52,0.00,,,0.00,WeatherCatV1.14B232,2013-03-22 01:28:00,
2013-03-21 21:33:00,54.5,37.6,29.91,WSW,247,0.0,0.0,53,0.00,,,0.00,WeatherCatV1.14B232,2013-03-22 01:33:00,
2013-03-21 21:38:00,54.3,37.9,29.91,WSW,247,0.0,0.0,54,0.00,,,0.00,WeatherCatV1.14B232,2013-03-22 01:38:00,
2013-03-21 21:43:00,54.1,38.2,29.91,WSW,247,0.0,0.0,55,0.00,,,0.00,WeatherCatV1.14B232,2013-03-22 01:43:00,
2013-03-21 21:48:00,54.0,38.1,29.91,WSW,247,0.0,0.0,55,0.00,,,0.00,WeatherCatV1.14B232,2013-03-22 01:48:00,
2013-03-21 21:53:00,53.8,37.9,29.91,WSW,247,0.0,0.0,55,0.00,,,0.00,WeatherCatV1.14B232,2013-03-22 01:53:00,
2013-03-21 21:58:00,53.4,38.2,29.92,WSW,247,0.0,0.0,56,0.00,,,0.00,WeatherCatV1.14B232,2013-03-22 01:58:00,
2013-03-21 22:03:00,53.2,37.9,29.92,WSW,247,0.0,0.0,56,0.00,,,0.00,WeatherCatV1.14B232,2013-03-22 02:03:00,
2013-03-21 22:08:00,53.1,37.7,29.92,WSW,247,0.0,0.0,56,0.00,,,0.00,WeatherCatV1.14B232,2013-03-22 02:08:00,
2013-03-21 22:13:00,52.7,37.8,29.92,WSW,247,0.0,0.0,57,0.00,,,0.00,WeatherCatV1.14B232,2013-03-22 02:13:00,
2013-03-21 22:18:00,52.5,37.6,29.92,WSW,247,0.0,0.0,57,0.00,,,0.00,WeatherCatV1.14B232,2013-03-22 02:18:00,
2013-03-21 22:23:00,52.3,37.5,29.92,West,270,0.0,0.0,57,0.00,,,0.00,WeatherCatV1.14B232,2013-03-22 02:23:00,
2013-03-21 22:28:00,52.3,37.9,29.92,WNW,292,0.0,0.0,58,0.00,,,0.00,WeatherCatV1.14B232,2013-03-22 02:28:00,
2013-03-21 22:33:00,52.0,37.6,29.92,WNW,292,0.0,0.0,58,0.00,,,0.00,WeatherCatV1.14B232,2013-03-22 02:33:00,
2013-03-21 22:38:00,52.0,38.0,29.93,WNW,292,0.0,0.0,59,0.00,,,0.00,WeatherCatV1.14B232,2013-03-22 02:38:00,
2013-03-21 22:43:00,51.6,38.1,29.92,WNW,292,0.0,0.0,60,0.00,,,0.00,WeatherCatV1.14B232,2013-03-22 02:43:00,
2013-03-21 22:48:00,51.6,38.1,29.93,WNW,292,0.0,0.0,60,0.00,,,0.00,WeatherCatV1.14B232,2013-03-22 02:48:00,
2013-03-21 22:53:00,51.6,38.5,29.93,WNW,292,0.0,0.0,61,0.00,,,0.00,WeatherCatV1.14B232,2013-03-22 02:53:00,
2013-03-21 22:58:00,51.4,38.4,29.93,West,270,0.0,0.0,61,0.00,,,0.00,WeatherCatV1.14B232,2013-03-22 02:58:00,
2013-03-21 23:03:00,51.4,38.4,29.93,West,270,0.0,0.0,61,0.00,,,0.00,WeatherCatV1.14B232,2013-03-22 03:03:00,
2013-03-21 23:08:00,51.3,38.2,29.93,West,270,0.0,0.0,61,0.00,,,0.00,WeatherCatV1.14B232,2013-03-22 03:08:00,
2013-03-21 23:13:00,51.1,38.0,29.93,West,270,0.0,0.0,61,0.00,,,0.00,WeatherCatV1.14B232,2013-03-22 03:13:00,
2013-03-21 23:18:00,50.9,38.3,29.93,WNW,292,0.0,0.0,62,0.00,,,0.00,WeatherCatV1.14B232,2013-03-22 03:18:00,
2013-03-21 23:23:00,50.7,38.1,29.93,WNW,292,0.0,0.0,62,0.00,,,0.00,WeatherCatV1.14B232,2013-03-22 03:23:00,
2013-03-21 23:28:00,50.7,38.5,29.94,WNW,292,0.0,0.0,63,0.00,,,0.00,WeatherCatV1.14B232,2013-03-22 03:28:00,
2013-03-21 23:33:00,50.5,38.4,29.94,WNW,292,0.0,0.0,63,0.00,,,0.00,WeatherCatV1.14B232,2013-03-22 03:33:00,
2013-03-21 23:38:00,50.5,38.4,29.94,WNW,292,0.0,0.0,63,0.00,,,0.00,WeatherCatV1.14B232,2013-03-22 03:38:00,
2013-03-21 23:43:00,50.4,38.2,29.93,WNW,292,0.0,0.0,63,0.00,,,0.00,WeatherCatV1.14B232,2013-03-22 03:43:00,
2013-03-21 23:48:00,50.2,38.0,29.94,WNW,292,0.0,0.0,63,0.00,,,0.00,WeatherCatV1.14B232,2013-03-22 03:48:00,
2013-03-21 23:53:00,50.2,38.4,29.94,West,270,0.0,0.0,64,0.00,,,0.00,WeatherCatV1.14B232,2013-03-22 03:53:00,
2013-03-21 23:58:00,49.8,38.1,29.94,SW,225,0.0,0.0,64,0.00,,,0.00,WeatherCatV1.14B232,2013-03-22 03:58:00,